^^
Meteo Knjazevac Station Historical Data
Daily Summary for August 10, 2022 Units:  Metric    English   Both
Daily Weekly Monthly Yearly Custom
  High: Low: Average:
Temperature: 26.9 °C 18.8 °C 21.2 °C
Dew Point: 21.2 °C 16.8 °C 18.6 °C
Humidity: 94% 69% 85%
Wind Speed: 4.8km/h 0km/h 1.8km/h
Wind Gust: 14.5km/h - -
Wind- - SSW
Pressure: 1019.9 hPa 1018.8 hPa -
Precipitation: 0 mm    
Historical Graphs
 
 
Tabular Data for August 10, 2022
Time Temperature Dew Point Pressure Wind Wind Speed Wind Gust Humidity Rainfall Rate (Hourly) solar Conditions
00:00 20.4 °C 17.1 °C 1018.8 hPa SW 3.2 km/h 4.8 km/h 81% 0 mm 0 W/m2
00:05 20.3 °C 16.9 °C 1018.8 hPa SW 3.2 km/h 4.8 km/h 81% 0 mm 0 W/m2
00:10 20.2 °C 16.8 °C 1018.8 hPa SW 1.6 km/h 3.2 km/h 81% 0 mm 0 W/m2
00:15 20.2 °C 17.2 °C 1018.8 hPa SW 1.6 km/h 3.2 km/h 83% 0 mm 0 W/m2
00:20 20.1 °C 17.1 °C 1018.8 hPa WSW 1.6 km/h 3.2 km/h 83% 0 mm 0 W/m2
00:25 20.1 °C 17.1 °C 1018.8 hPa Calm   3.2 km/h 83% 0 mm 0 W/m2
00:35 20.4 °C 17.4 °C 1019.2 hPa SE 1.6 km/h 4.8 km/h 83% 0 mm 0 W/m2
00:40 20.4 °C 17.4 °C 1019.2 hPa Calm   4.8 km/h 83% 0 mm 0 W/m2
00:50 20.2 °C 17.4 °C 1019.2 hPa Calm   3.2 km/h 84% 0 mm 0 W/m2
01:00 20.1 °C 17.3 °C 1019.2 hPa WSW 1.6 km/h 3.2 km/h 84% 0 mm 0 W/m2
01:05 20.1 °C 17.3 °C 1019.2 hPa WSW 1.6 km/h 4.8 km/h 84% 0 mm 0 W/m2
01:10 20 °C 17.2 °C 1018.8 hPa West 1.6 km/h 3.2 km/h 84% 0 mm 0 W/m2
01:15 20 °C 17.2 °C 1018.8 hPa West 1.6 km/h 3.2 km/h 84% 0 mm 0 W/m2
01:20 19.9 °C 17.1 °C 1018.8 hPa WSW 3.2 km/h 4.8 km/h 84% 0 mm 0 W/m2
01:25 19.9 °C 17.1 °C 1018.8 hPa SW 3.2 km/h 4.8 km/h 84% 0 mm 0 W/m2
01:30 19.8 °C 17.2 °C 1018.8 hPa SW 1.6 km/h 3.2 km/h 85% 0 mm 0 W/m2
01:35 19.8 °C 17.2 °C 1018.8 hPa SW 3.2 km/h 4.8 km/h 85% 0 mm 0 W/m2
01:40 19.7 °C 17.1 °C 1018.8 hPa SW 1.6 km/h 4.8 km/h 85% 0 mm 0 W/m2
01:50 19.7 °C 17.1 °C 1018.8 hPa WSW 3.2 km/h 6.4 km/h 85% 0 mm 0 W/m2
01:55 19.7 °C 17.1 °C 1018.8 hPa WSW 3.2 km/h 6.4 km/h 85% 0 mm 0 W/m2
02:05 19.6 °C 17.2 °C 1018.8 hPa West 4.8 km/h 9.7 km/h 86% 0 mm 0 W/m2
02:10 19.8 °C 17.4 °C 1018.8 hPa WSW 3.2 km/h 6.4 km/h 86% 0 mm 0 W/m2
02:15 19.8 °C 17.2 °C 1018.8 hPa SW 3.2 km/h 4.8 km/h 85% 0 mm 0 W/m2
02:20 19.8 °C 17.4 °C 1018.8 hPa SW 4.8 km/h 6.4 km/h 86% 0 mm 0 W/m2
02:25 19.8 °C 17.4 °C 1018.8 hPa WSW 3.2 km/h 6.4 km/h 86% 0 mm 0 W/m2
02:30 19.8 °C 17.8 °C 1018.8 hPa WSW 3.2 km/h 8 km/h 88% 0 mm 0 W/m2
02:35 19.9 °C 17.8 °C 1018.8 hPa West 4.8 km/h 9.7 km/h 88% 0 mm 0 W/m2
02:40 20 °C 18.1 °C 1018.8 hPa WSW 3.2 km/h 8 km/h 89% 0 mm 0 W/m2
02:45 20.1 °C 18.2 °C 1018.8 hPa WSW 1.6 km/h 4.8 km/h 89% 0 mm 0 W/m2
02:50 20.1 °C 18.1 °C 1018.8 hPa Calm   3.2 km/h 88% 0 mm 0 W/m2
02:55 20.1 °C 18.1 °C 1018.8 hPa Calm     88% 0 mm 0 W/m2
03:00 20.1 °C 18.1 °C 1018.8 hPa SW 1.6 km/h 3.2 km/h 88% 0 mm 0 W/m2
03:05 20.1 °C 18.1 °C 1018.8 hPa Calm   3.2 km/h 88% 0 mm 0 W/m2
03:10 20.2 °C 17.8 °C 1018.8 hPa Calm   3.2 km/h 86% 0 mm 0 W/m2
03:15 20.2 °C 17.8 °C 1018.8 hPa Calm   3.2 km/h 86% 0 mm 0 W/m2
03:20 20.1 °C 17.7 °C 1018.8 hPa Calm   1.6 km/h 86% 0 mm 0 W/m2
03:25 20.1 °C 17.7 °C 1018.8 hPa Calm     86% 0 mm 0 W/m2
03:30 20.2 °C 17.8 °C 1018.8 hPa Calm   3.2 km/h 86% 0 mm 0 W/m2
03:40 20.2 °C 17.6 °C 1018.8 hPa South 1.6 km/h 4.8 km/h 85% 0 mm 0 W/m2
03:50 20.1 °C 17.7 °C 1018.8 hPa WSW 1.6 km/h 3.2 km/h 86% 0 mm 0 W/m2
03:55 20 °C 17.6 °C 1018.8 hPa SW 3.2 km/h 6.4 km/h 86% 0 mm 0 W/m2
04:00 20 °C 17.9 °C 1018.8 hPa SW 3.2 km/h 8 km/h 88% 0 mm 0 W/m2
04:05 19.9 °C 18.1 °C 1018.8 hPa WSW 4.8 km/h 8 km/h 89% 0 mm 0 W/m2
04:10 20 °C 18.1 °C 1018.8 hPa WSW 4.8 km/h 8 km/h 89% 0 mm 0 W/m2
04:20 20 °C 18.3 °C 1018.8 hPa SW 1.6 km/h 4.8 km/h 90% 0 mm 0 W/m2
04:25 20 °C 18.3 °C 1019.2 hPa Calm   3.2 km/h 90% 0 mm 0 W/m2
04:30 20 °C 18.3 °C 1019.2 hPa Calm   1.6 km/h 90% 0 mm 0 W/m2
04:35 20 °C 18.3 °C 1019.2 hPa SSW 1.6 km/h 3.2 km/h 90% 0 mm 0 W/m2
04:40 20 °C 18.3 °C 1019.2 hPa SSW 3.2 km/h 4.8 km/h 90% 0 mm 0 W/m2
04:45 20 °C 18.3 °C 1019.2 hPa Calm   3.2 km/h 90% 0 mm 0 W/m2
04:50 20 °C 18.3 °C 1019.2 hPa Calm   1.6 km/h 90% 0 mm 0 W/m2
04:55 20 °C 18.3 °C 1019.2 hPa NW 1.6 km/h 3.2 km/h 90% 0 mm 0 W/m2
05:00 19.9 °C 18.2 °C 1019.2 hPa Calm   3.2 km/h 90% 0 mm 0 W/m2
05:05 19.8 °C 18.1 °C 1019.2 hPa SW 1.6 km/h 3.2 km/h 90% 0 mm 0 W/m2
05:10 19.8 °C 18.1 °C 1019.5 hPa WSW 1.6 km/h 4.8 km/h 90% 0 mm 0 W/m2
05:15 19.7 °C 18.2 °C 1019.5 hPa WSW 3.2 km/h 8 km/h 91% 0 mm 0 W/m2
05:20 19.6 °C 18.4 °C 1019.2 hPa WSW 1.6 km/h 6.4 km/h 93% 0 mm 0 W/m2
05:30 19.4 °C 17.9 °C 1019.2 hPa West 1.6 km/h 3.2 km/h 91% 0 mm 2 W/m2
05:35 19.3 °C 18.2 °C 1019.5 hPa WSW 3.2 km/h 4.8 km/h 93% 0 mm 4 W/m2
05:40 19.3 °C 18.2 °C 1019.5 hPa WSW 3.2 km/h 4.8 km/h 93% 0 mm 6 W/m2
05:45 19.2 °C 18.1 °C 1019.5 hPa Calm   4.8 km/h 93% 0 mm 8 W/m2
05:50 19.2 °C 18.1 °C 1019.5 hPa Calm   1.6 km/h 93% 0 mm 10 W/m2
05:55 19.1 °C 18.1 °C 1019.5 hPa SE 1.6 km/h 4.8 km/h 94% 0 mm 13 W/m2
06:00 19 °C 18 °C 1019.5 hPa ESE 3.2 km/h 6.4 km/h 94% 0 mm 16 W/m2
06:05 18.9 °C 17.7 °C 1019.5 hPa SSE 1.6 km/h 3.2 km/h 93% 0 mm 20 W/m2
06:10 18.9 °C 17.9 °C 1019.9 hPa Calm   1.6 km/h 94% 0 mm 24 W/m2
06:15 18.9 °C 17.9 °C 1019.9 hPa WSW 1.6 km/h 3.2 km/h 94% 0 mm 31 W/m2
06:20 18.8 °C 17.8 °C 1019.9 hPa Calm   3.2 km/h 94% 0 mm 38 W/m2
06:25 18.9 °C 17.9 °C 1019.9 hPa Calm   3.2 km/h 94% 0 mm 40 W/m2
06:30 19 °C 18 °C 1019.9 hPa Calm   3.2 km/h 94% 0 mm 46 W/m2
06:35 19.1 °C 18.1 °C 1019.9 hPa Calm     94% 0 mm 47 W/m2
06:40 19.2 °C 18.2 °C 1019.9 hPa Calm   1.6 km/h 94% 0 mm 49 W/m2
06:45 19.2 °C 18.2 °C 1019.9 hPa Calm   3.2 km/h 94% 0 mm 49 W/m2
06:50 19.2 °C 18.2 °C 1019.9 hPa Calm     94% 0 mm 54 W/m2
06:55 19.3 °C 18.3 °C 1019.9 hPa Calm   1.6 km/h 94% 0 mm 59 W/m2
07:00 19.4 °C 18.4 °C 1019.9 hPa ENE 3.2 km/h 4.8 km/h 94% 0 mm 64 W/m2
07:10 19.5 °C 18.3 °C 1019.9 hPa East 1.6 km/h 3.2 km/h 93% 0 mm 76 W/m2
07:15 19.6 °C 18.4 °C 1019.9 hPa SE 1.6 km/h 3.2 km/h 93% 0 mm 91 W/m2
07:20 19.8 °C 18.6 °C 1019.9 hPa SE 1.6 km/h 3.2 km/h 93% 0 mm 107 W/m2
07:25 19.9 °C 18.7 °C 1019.9 hPa ENE 1.6 km/h 4.8 km/h 93% 0 mm 118 W/m2
07:30 20 °C 18.8 °C 1019.9 hPa ENE 1.6 km/h 3.2 km/h 93% 0 mm 123 W/m2
07:35 20.1 °C 18.6 °C 1019.9 hPa Calm   3.2 km/h 91% 0 mm 138 W/m2
07:40 20.3 °C 18.8 °C 1019.9 hPa Calm   1.6 km/h 91% 0 mm 150 W/m2
07:45 20.4 °C 18.7 °C 1019.9 hPa Calm   3.2 km/h 90% 0 mm 132 W/m2
07:50 20.5 °C 18.8 °C 1019.9 hPa East 1.6 km/h 3.2 km/h 90% 0 mm 147 W/m2
07:55 20.6 °C 18.7 °C 1019.9 hPa South 1.6 km/h 3.2 km/h 89% 0 mm 160 W/m2
08:00 20.8 °C 18.9 °C 1019.9 hPa Calm   3.2 km/h 89% 0 mm 182 W/m2
08:05 20.9 °C 19 °C 1019.9 hPa SE 1.6 km/h 3.2 km/h 89% 0 mm 164 W/m2
08:10 21 °C 18.9 °C 1019.9 hPa Calm   3.2 km/h 88% 0 mm 174 W/m2
08:15 21.1 °C 19.1 °C 1019.9 hPa Calm   3.2 km/h 88% 0 mm 161 W/m2
08:20 21.3 °C 19.4 °C 1019.9 hPa Calm   4.8 km/h 89% 0 mm 181 W/m2
08:25 21.5 °C 19.4 °C 1019.9 hPa ENE 3.2 km/h 4.8 km/h 88% 0 mm 199 W/m2
08:30 21.6 °C 19.2 °C 1019.9 hPa NE 1.6 km/h 6.4 km/h 86% 0 mm 229 W/m2
08:45 21.9 °C 19.3 °C 1019.9 hPa South 1.6 km/h 4.8 km/h 85% 0 mm 241 W/m2
08:50 22 °C 19.4 °C 1019.9 hPa SW 1.6 km/h 4.8 km/h 85% 0 mm 241 W/m2
08:55 22.1 °C 19.4 °C 1019.9 hPa WSW 1.6 km/h 4.8 km/h 85% 0 mm 247 W/m2
09:05 22.4 °C 19.6 °C 1019.9 hPa SSW 3.2 km/h 4.8 km/h 84% 0 mm 289 W/m2
09:10 22.6 °C 19.6 °C 1019.9 hPa South 1.6 km/h 6.4 km/h 83% 0 mm 295 W/m2
09:15 22.7 °C 19.7 °C 1019.9 hPa Calm   4.8 km/h 83% 0 mm 301 W/m2
09:20 22.8 °C 19.8 °C 1019.9 hPa NE 1.6 km/h 4.8 km/h 83% 0 mm 319 W/m2
09:25 22.9 °C 19.4 °C 1019.9 hPa ESE 3.2 km/h 4.8 km/h 81% 0 mm 349 W/m2
09:30 23.1 °C 19.4 °C 1019.9 hPa SSE 1.6 km/h 3.2 km/h 80% 0 mm 333 W/m2
09:35 23.3 °C 19.2 °C 1019.9 hPa East 3.2 km/h 6.4 km/h 78% 0 mm 298 W/m2
09:40 23.6 °C 19.8 °C 1019.9 hPa NE 1.6 km/h 8 km/h 79% 0 mm 686 W/m2
09:45 24.2 °C 20.1 °C 1019.9 hPa North 1.6 km/h 8 km/h 78% 0 mm 698 W/m2
09:50 24.8 °C 20.1 °C 1019.9 hPa WNW 1.6 km/h 6.4 km/h 75% 0 mm 710 W/m2
09:55 24.7 °C 19.8 °C 1019.9 hPa ENE 3.2 km/h 8 km/h 74% 0 mm 722 W/m2
10:00 25.2 °C 20 °C 1019.5 hPa SE 3.2 km/h 8 km/h 73% 0 mm 733 W/m2
10:10 25.1 °C 19.9 °C 1019.5 hPa SE 1.6 km/h 11.3 km/h 73% 0 mm 586 W/m2
10:15 25.3 °C 20.3 °C 1019.5 hPa WNW 4.8 km/h 11.3 km/h 74% 0 mm 600 W/m2
10:20 25.7 °C 20.3 °C 1019.5 hPa WNW 1.6 km/h 8 km/h 72% 0 mm 557 W/m2
10:25 25.7 °C 20.3 °C 1019.5 hPa SW 3.2 km/h 8 km/h 72% 0 mm 510 W/m2
10:35 26.2 °C 20.3 °C 1019.5 hPa WSW 3.2 km/h 11.3 km/h 70% 0 mm 436 W/m2
10:40 26.3 °C 20.4 °C 1019.5 hPa WSW 1.6 km/h 8 km/h 70% 0 mm 360 W/m2
10:45 26.2 °C 20.8 °C 1019.5 hPa Calm   8 km/h 72% 0 mm 362 W/m2
10:55 26 °C 19.8 °C 1019.5 hPa WNW 1.6 km/h 6.4 km/h 69% 0 mm 310 W/m2
11:05 25.9 °C 20.7 °C 1019.5 hPa WNW 1.6 km/h 9.7 km/h 73% 0 mm 216 W/m2
11:10 25.8 °C 20.6 °C 1019.5 hPa WSW 3.2 km/h 9.7 km/h 73% 0 mm 166 W/m2
11:15 25.6 °C 20.4 °C 1019.5 hPa SW 4.8 km/h 11.3 km/h 73% 0 mm 136 W/m2
11:20 25.5 °C 20.5 °C 1019.2 hPa SW 3.2 km/h 6.4 km/h 74% 0 mm 143 W/m2
11:25 25.5 °C 20.6 °C 1019.2 hPa Calm   4.8 km/h 74% 0 mm 160 W/m2
11:30 25.6 °C 20.4 °C 1019.5 hPa WSW 4.8 km/h 8 km/h 73% 0 mm 166 W/m2
11:35 25.6 °C 20.6 °C 1019.2 hPa WSW 3.2 km/h 8 km/h 74% 0 mm 194 W/m2
11:40 25.6 °C 20.6 °C 1019.2 hPa WSW 3.2 km/h 8 km/h 74% 0 mm 293 W/m2
11:45 25.9 °C 20.9 °C 1019.2 hPa SW 4.8 km/h 9.7 km/h 74% 0 mm 587 W/m2
11:50 26.3 °C 21.1 °C 1019.2 hPa SSW 4.8 km/h 14.5 km/h 73% 0 mm 590 W/m2
11:55 26.7 °C 21.2 °C 1019.2 hPa SW 4.8 km/h 12.9 km/h 72% 0 mm 832 W/m2
12:00 26.9 °C 20.9 °C 1019.2 hPa WSW 1.6 km/h 12.9 km/h 70% 0 mm 813 W/m2
Knjazevac, Serbia
Compliments of Weather Underground - 2 mb